createdAt,value
2018-05-18T00:01:49.015Z,24.93
2018-05-18T00:05:12.352Z,21.17
2018-05-18T00:08:36.439Z,22.87
2018-05-18T00:11:59.736Z,26.13
2018-05-18T00:15:23.082Z,24.17
2018-05-18T00:18:47.219Z,24.53
2018-05-18T00:22:11.351Z,23.43
2018-05-18T00:25:34.683Z,23.73
2018-05-18T00:28:57.959Z,22.77
2018-05-18T00:32:21.252Z,23.23
2018-05-18T00:35:44.530Z,25.13
2018-05-18T00:39:07.806Z,23.20
2018-05-18T00:42:31.985Z,25.73
2018-05-18T00:45:55.264Z,20.33
2018-05-18T00:49:18.633Z,24.27
2018-05-18T00:52:41.969Z,28.27
2018-05-18T00:56:05.252Z,25.13
2018-05-18T00:59:28.587Z,27.67
2018-05-18T01:02:51.843Z,25.10
2018-05-18T01:06:15.189Z,30.67
2018-05-18T01:09:38.475Z,31.83
2018-05-18T01:13:01.895Z,30.47
2018-05-18T01:16:25.179Z,29.47
2018-05-18T01:19:49.273Z,31.53
2018-05-18T01:23:12.613Z,31.33
2018-05-18T01:26:36.697Z,28.70
2018-05-18T01:30:00.809Z,27.17
2018-05-18T01:33:24.441Z,28.50
2018-05-18T01:36:47.726Z,30.40
2018-05-18T01:40:11.019Z,27.77
2018-05-18T01:43:34.372Z,28.10
2018-05-18T01:46:57.645Z,29.43
2018-05-18T01:50:20.935Z,28.70
2018-05-18T01:53:44.201Z,32.30
2018-05-18T01:57:08.312Z,29.30
2018-05-18T02:00:31.642Z,30.10
2018-05-18T02:03:55.759Z,30.50
2018-05-18T02:07:19.097Z,29.90
2018-05-18T02:10:43.179Z,30.20
2018-05-18T02:14:06.457Z,30.10
2018-05-18T02:17:29.827Z,35.73
2018-05-18T02:20:53.081Z,30.00
2018-05-18T02:24:17.205Z,32.43
2018-05-18T02:27:40.574Z,32.20
2018-05-18T02:31:03.823Z,32.30
2018-05-18T02:34:27.918Z,34.20
2018-05-18T02:37:51.201Z,35.53
2018-05-18T02:41:14.476Z,37.47
2018-05-18T02:44:38.567Z,36.70
2018-05-18T02:48:01.840Z,37.77
2018-05-18T02:51:25.129Z,34.53
2018-05-18T02:54:48.430Z,34.90
2018-05-18T02:58:11.772Z,38.50
2018-05-18T03:01:35.855Z,36.97
2018-05-18T03:04:59.218Z,37.43
2018-05-18T03:08:22.492Z,39.90
2018-05-18T03:11:45.760Z,35.63
2018-05-18T03:15:09.807Z,34.33
2018-05-18T03:18:33.074Z,37.80
2018-05-18T03:21:57.168Z,37.83
2018-05-18T03:25:20.474Z,37.43
2018-05-18T03:28:43.817Z,36.90
2018-05-18T03:32:07.169Z,39.10
2018-05-18T03:35:30.459Z,35.97
2018-05-18T03:38:53.816Z,38.77
2018-05-18T03:42:17.243Z,37.30
2018-05-18T03:45:40.598Z,35.33
2018-05-18T03:49:03.880Z,28.43
2018-05-18T03:52:27.286Z,26.80
2018-05-18T03:55:51.395Z,25.73
2018-05-18T03:59:14.661Z,26.47
2018-05-18T04:02:55.853Z,25.03
2018-05-18T04:06:36.949Z,26.33
2018-05-18T04:10:00.213Z,23.97
2018-05-18T04:13:23.499Z,23.53
2018-05-18T04:16:46.811Z,23.70
2018-05-18T04:20:10.169Z,22.77
2018-05-18T04:23:33.571Z,19.80
2018-05-18T04:26:57.667Z,23.70
2018-05-18T04:30:21.046Z,22.33
2018-05-18T04:33:44.392Z,22.90
2018-05-18T04:37:07.747Z,19.47
2018-05-18T04:40:31.032Z,23.47
2018-05-18T04:43:54.363Z,19.77
2018-05-18T04:47:17.667Z,20.83
2018-05-18T04:50:40.991Z,17.73
2018-05-18T04:54:05.046Z,17.77
2018-05-18T04:57:28.329Z,18.33
2018-05-18T05:00:51.694Z,16.83
2018-05-18T05:04:15.040Z,18.10
2018-05-18T05:07:38.408Z,22.10
2018-05-18T05:11:01.772Z,19.70
2018-05-18T05:14:25.116Z,21.37
2018-05-18T05:17:48.540Z,19.00
2018-05-18T05:21:13.960Z,21.03
2018-05-18T05:24:38.077Z,22.57
2018-05-18T05:28:01.369Z,22.83
2018-05-18T05:31:24.650Z,25.90
2018-05-18T05:34:47.942Z,22.53
2018-05-18T05:38:11.330Z,15.97
2018-05-18T05:41:36.165Z,16.80
2018-05-18T05:44:59.460Z,15.50
2018-05-18T05:48:22.775Z,15.57
2018-05-18T05:51:46.828Z,18.20
2018-05-18T05:55:10.136Z,15.07
2018-05-18T05:58:33.441Z,17.30
2018-05-18T06:01:57.523Z,16.93
2018-05-18T06:05:21.633Z,18.70
2018-05-18T06:08:44.895Z,20.60
2018-05-18T06:12:09.020Z,24.30
2018-05-18T06:15:32.218Z,23.33
2018-05-18T06:18:55.508Z,22.53
2018-05-18T06:22:18.786Z,24.63
2018-05-18T06:25:43.414Z,22.87
2018-05-18T06:29:07.480Z,23.63
2018-05-18T06:32:30.825Z,24.40
2018-05-18T06:35:54.227Z,21.63
2018-05-18T06:39:18.295Z,28.63
2018-05-18T06:42:43.079Z,29.90
2018-05-18T06:46:06.381Z,26.83
2018-05-18T06:49:29.692Z,26.53
2018-05-18T06:52:53.794Z,23.93
2018-05-18T06:56:17.078Z,23.73
2018-05-18T06:59:41.380Z,24.23
2018-05-18T07:03:04.694Z,27.03
2018-05-18T07:06:27.978Z,23.13
2018-05-18T07:09:52.766Z,25.57
2018-05-18T07:13:16.048Z,27.07
2018-05-18T07:16:39.365Z,26.97
2018-05-18T07:20:03.541Z,22.20
2018-05-18T07:23:27.589Z,21.93
2018-05-18T07:26:50.887Z,25.13
2018-05-18T07:30:14.937Z,23.73
2018-05-18T07:33:38.299Z,26.47
2018-05-18T07:37:01.631Z,25.13
2018-05-18T07:40:25.751Z,27.13
2018-05-18T07:43:49.118Z,28.47
2018-05-18T07:47:13.181Z,31.80
2018-05-18T07:50:36.466Z,29.57
2018-05-18T07:54:01.634Z,30.57
2018-05-18T07:57:24.917Z,23.03
2018-05-18T08:00:48.221Z,26.00
2018-05-18T08:04:11.497Z,30.13
2018-05-18T08:07:34.841Z,28.50
2018-05-18T08:10:58.154Z,30.47
2018-05-18T08:14:21.467Z,34.53
2018-05-18T08:17:45.528Z,32.80
2018-05-18T08:21:08.814Z,34.67
2018-05-18T08:24:32.087Z,35.60
2018-05-18T08:27:55.392Z,35.00
2018-05-18T08:31:19.462Z,34.10
2018-05-18T08:34:42.736Z,34.97
2018-05-18T08:38:06.024Z,33.00
2018-05-18T08:41:29.309Z,31.70
2018-05-18T08:44:52.739Z,35.30
2018-05-18T08:48:16.062Z,34.27
2018-05-18T08:51:40.114Z,29.37
2018-05-18T08:55:03.406Z,38.53
2018-05-18T08:58:26.685Z,30.93
2018-05-18T09:01:50.002Z,33.23
2018-05-18T09:05:14.043Z,28.97
2018-05-18T09:08:37.455Z,29.03
2018-05-18T09:12:00.754Z,31.43
2018-05-18T09:15:24.038Z,28.43
2018-05-18T09:18:47.324Z,33.57
2018-05-18T09:22:10.705Z,31.90
2018-05-18T09:25:34.771Z,29.47
2018-05-18T09:28:58.071Z,29.50
2018-05-18T09:32:22.266Z,29.20
2018-05-18T09:35:45.694Z,28.93
2018-05-18T09:39:08.978Z,29.33
2018-05-18T09:42:32.409Z,30.43
2018-05-18T09:45:55.697Z,28.37
2018-05-18T09:49:18.974Z,29.07
2018-05-18T09:52:42.287Z,25.10
2018-05-18T09:56:06.344Z,32.43
2018-05-18T09:59:29.623Z,32.30
2018-05-18T10:02:52.947Z,30.63
2018-05-18T10:06:16.995Z,29.33
2018-05-18T10:09:40.276Z,31.60
2018-05-18T10:13:03.560Z,34.97
2018-05-18T10:16:27.006Z,31.17
2018-05-18T10:19:50.278Z,29.93
2018-05-18T10:23:13.557Z,32.50
2018-05-18T10:26:36.923Z,32.67
2018-05-18T10:30:00.220Z,32.37
2018-05-18T10:33:23.526Z,32.30
2018-05-18T10:36:47.611Z,28.97
2018-05-18T10:40:11.735Z,30.17
2018-05-18T10:43:35.180Z,29.43
2018-05-18T10:46:58.459Z,29.30
2018-05-18T10:50:21.764Z,31.77
2018-05-18T10:53:46.930Z,27.50
2018-05-18T10:57:10.213Z,25.70
2018-05-18T11:00:34.357Z,26.93
2018-05-18T11:03:57.652Z,29.20
2018-05-18T11:07:20.942Z,25.23
2018-05-18T11:10:44.998Z,28.13
2018-05-18T11:14:08.341Z,29.10
2018-05-18T11:17:31.584Z,29.50
2018-05-18T11:20:54.873Z,25.97
2018-05-18T11:24:18.203Z,27.73
2018-05-18T11:27:41.518Z,22.20
2018-05-18T11:31:05.582Z,26.93
2018-05-18T11:34:28.866Z,24.57
2018-05-18T11:37:52.248Z,25.23
2018-05-18T11:41:16.277Z,25.67
2018-05-18T11:44:39.603Z,25.50
2018-05-18T11:48:02.943Z,24.00
2018-05-18T11:51:26.957Z,26.60
2018-05-18T11:54:50.360Z,26.53
2018-05-18T11:58:13.665Z,26.73
2018-05-18T12:01:36.982Z,25.77
2018-05-18T12:05:01.786Z,24.40
2018-05-18T12:08:25.166Z,22.77
2018-05-18T12:11:48.504Z,22.63
2018-05-18T12:15:11.848Z,20.40
2018-05-18T12:18:35.199Z,23.17
2018-05-18T12:21:58.486Z,26.63
2018-05-18T12:25:21.785Z,21.33
2018-05-18T12:28:45.069Z,18.43
2018-05-18T12:32:09.128Z,18.87
2018-05-18T12:35:32.417Z,17.60
2018-05-18T12:38:55.710Z,15.77
2018-05-18T12:42:19.008Z,16.77
2018-05-18T12:45:42.292Z,16.67
2018-05-18T12:49:05.557Z,16.03
2018-05-18T12:52:28.837Z,15.87
2018-05-18T12:55:52.192Z,15.33
2018-05-18T12:59:16.539Z,17.20
2018-05-18T13:02:40.760Z,14.63
2018-05-18T13:06:04.806Z,17.03
2018-05-18T13:09:28.851Z,13.30
2018-05-18T13:12:52.899Z,13.17
2018-05-18T13:16:16.232Z,12.53
2018-05-18T13:19:39.490Z,10.40
2018-05-18T13:23:02.781Z,11.43
2018-05-18T13:26:26.057Z,11.67
2018-05-18T13:29:49.334Z,10.77
2018-05-18T13:33:12.758Z,10.10
2018-05-18T13:36:36.041Z,11.50
2018-05-18T13:39:59.334Z,10.17
2018-05-18T13:43:22.627Z,10.37
2018-05-18T13:46:46.037Z,9.53
2018-05-18T13:50:09.327Z,10.43
2018-05-18T13:53:32.629Z,9.43
2018-05-18T13:56:55.975Z,8.70
2018-05-18T14:00:19.389Z,10.03
2018-05-18T14:03:42.642Z,8.50
2018-05-18T14:07:06.757Z,9.53
2018-05-18T14:10:30.041Z,9.20
2018-05-18T14:13:53.332Z,10.37
2018-05-18T14:17:16.640Z,8.70
2018-05-18T14:20:39.932Z,8.40
2018-05-18T14:24:04.036Z,9.33
2018-05-18T14:27:27.311Z,8.73
2018-05-18T14:30:50.609Z,8.23
2018-05-18T14:34:13.899Z,8.60
2018-05-18T14:37:37.182Z,8.30
2018-05-18T14:41:00.509Z,8.63
2018-05-18T14:44:24.556Z,10.67
2018-05-18T14:47:47.876Z,8.47
2018-05-18T14:51:12.074Z,8.63
2018-05-18T14:54:36.100Z,9.70
2018-05-18T14:57:59.371Z,8.67
2018-05-18T15:01:22.849Z,8.97
2018-05-18T15:04:46.133Z,8.90
2018-05-18T15:08:09.405Z,8.63
2018-05-18T15:11:33.543Z,8.97
2018-05-18T15:14:56.949Z,9.17
2018-05-18T15:18:20.378Z,8.53
2018-05-18T15:21:43.805Z,8.23
2018-05-18T15:25:07.085Z,7.50
2018-05-18T15:28:30.382Z,9.73
2018-05-18T15:31:53.664Z,7.17
2018-05-18T15:35:16.949Z,7.43
2018-05-18T15:38:40.212Z,7.43
2018-05-18T15:42:03.517Z,10.27
2018-05-18T15:45:26.804Z,11.23
2018-05-18T15:48:50.103Z,9.73
2018-05-18T15:52:13.375Z,8.50
2018-05-18T15:55:36.673Z,8.97
2018-05-18T15:58:59.937Z,8.77
2018-05-18T16:02:23.221Z,9.07
2018-05-18T16:05:53.636Z,9.00
2018-05-18T16:09:16.992Z,9.00
2018-05-18T16:12:40.357Z,10.37
2018-05-18T16:16:03.866Z,13.00
2018-05-18T16:19:27.252Z,8.93
2018-05-18T16:23:02.003Z,10.27
2018-05-18T16:26:28.403Z,9.17
2018-05-18T16:29:51.818Z,9.70
2018-05-18T16:33:22.950Z,10.47
2018-05-18T16:36:46.765Z,12.17
2018-05-18T16:40:10.147Z,9.80
2018-05-18T16:43:33.909Z,10.03
2018-05-18T16:46:57.250Z,10.10
2018-05-18T16:50:21.245Z,9.20
2018-05-18T16:53:45.269Z,8.47
2018-05-18T16:57:08.580Z,8.77
2018-05-18T17:00:31.902Z,8.57
2018-05-18T17:03:55.565Z,8.17
2018-05-18T17:07:19.067Z,8.50
2018-05-18T17:10:42.393Z,8.07
2018-05-18T17:14:06.499Z,8.30
2018-05-18T17:17:29.790Z,10.57
2018-05-18T17:20:53.068Z,9.80
2018-05-18T17:24:16.356Z,11.83
2018-05-18T17:27:39.623Z,11.10
2018-05-18T17:31:03.065Z,10.47
2018-05-18T17:34:26.348Z,11.60
2018-05-18T17:37:49.659Z,9.27
2018-05-18T17:41:13.008Z,9.30
2018-05-18T17:44:36.516Z,10.23
2018-05-18T17:47:59.933Z,8.00
2018-05-18T17:51:23.229Z,8.60
2018-05-18T17:54:46.553Z,9.33
2018-05-18T17:58:09.937Z,8.23
2018-05-18T18:01:35.014Z,8.43
2018-05-18T18:04:59.834Z,9.07
2018-05-18T18:08:23.148Z,7.73
2018-05-18T18:11:46.630Z,7.53
2018-05-18T18:15:09.901Z,8.20
2018-05-18T18:18:33.293Z,7.77
2018-05-18T18:21:56.617Z,7.50
2018-05-18T18:25:19.953Z,9.37
2018-05-18T18:28:45.305Z,10.67
2018-05-18T18:32:10.774Z,8.77
2018-05-18T18:35:34.061Z,10.00
2018-05-18T18:38:57.561Z,7.30
2018-05-18T18:42:20.934Z,8.87
2018-05-18T18:45:44.357Z,12.67
2018-05-18T18:49:07.686Z,9.47
2018-05-18T18:52:30.999Z,10.63
2018-05-18T18:55:54.351Z,9.30
2018-05-18T18:59:17.699Z,9.57
2018-05-18T19:02:40.982Z,11.77
2018-05-18T19:06:05.077Z,10.87
2018-05-18T19:09:28.418Z,11.13
2018-05-18T19:12:51.832Z,9.57
2018-05-18T19:16:15.173Z,10.37
2018-05-18T19:19:40.046Z,11.40
2018-05-18T19:23:03.762Z,9.70
2018-05-18T19:26:27.100Z,9.63
2018-05-18T19:29:50.473Z,12.63
2018-05-18T19:33:13.814Z,11.83
2018-05-18T19:36:37.233Z,10.80
2018-05-18T19:40:00.456Z,10.40
2018-05-18T19:43:23.769Z,9.50
2018-05-18T19:46:47.107Z,9.77
2018-05-18T19:50:10.428Z,9.10
2018-05-18T19:53:33.774Z,11.27
2018-05-18T19:56:57.869Z,9.33
2018-05-18T20:00:22.383Z,10.50
2018-05-18T20:03:46.479Z,8.53
2018-05-18T20:07:09.808Z,9.97
2018-05-18T20:10:33.141Z,8.63
2018-05-18T20:13:56.498Z,11.30
2018-05-18T20:17:19.847Z,9.13
2018-05-18T20:20:43.321Z,9.80
2018-05-18T20:24:08.230Z,8.90
2018-05-18T20:27:31.551Z,10.03
2018-05-18T20:30:54.863Z,10.17
2018-05-18T20:34:18.159Z,9.63
2018-05-18T20:37:41.484Z,12.60
2018-05-18T20:41:05.619Z,8.87
2018-05-18T20:44:28.985Z,9.50
2018-05-18T20:47:52.328Z,10.00
2018-05-18T20:51:15.689Z,10.73
2018-05-18T20:54:39.300Z,10.57
2018-05-18T20:58:03.406Z,9.13
2018-05-18T21:01:26.804Z,8.67
2018-05-18T21:04:50.928Z,10.63
2018-05-18T21:08:14.274Z,10.47
2018-05-18T21:11:37.569Z,13.07
2018-05-18T21:15:00.935Z,10.83
2018-05-18T21:18:24.415Z,10.60
2018-05-18T21:21:47.705Z,10.20
2018-05-18T21:25:11.209Z,10.53
2018-05-18T21:28:34.617Z,9.00
2018-05-18T21:31:58.801Z,14.30
2018-05-18T21:35:22.134Z,11.93
2018-05-18T21:38:45.438Z,9.70
2018-05-18T21:42:08.719Z,9.37
2018-05-18T21:45:32.031Z,11.43
2018-05-18T21:48:55.399Z,10.93
2018-05-18T21:52:19.660Z,10.37
2018-05-18T21:55:42.945Z,11.10
2018-05-18T21:59:06.283Z,12.27
2018-05-18T22:02:29.589Z,12.10
2018-05-18T22:05:52.865Z,10.97
2018-05-18T22:09:16.223Z,11.37
2018-05-18T22:12:39.505Z,13.10
2018-05-18T22:16:02.779Z,13.97
2018-05-18T22:19:26.913Z,15.03
2018-05-18T22:22:50.947Z,12.60
2018-05-18T22:26:15.041Z,12.17
2018-05-18T22:29:38.347Z,15.43
2018-05-18T22:33:01.800Z,10.43
2018-05-18T22:36:25.877Z,16.57
2018-05-18T22:39:49.334Z,15.77
2018-05-18T22:43:12.737Z,13.20
2018-05-18T22:46:36.142Z,12.93
2018-05-18T22:49:59.566Z,13.20
2018-05-18T22:53:22.994Z,13.17
2018-05-18T22:56:46.293Z,16.63
2018-05-18T23:00:09.657Z,14.97
2018-05-18T23:03:34.537Z,14.90
2018-05-18T23:06:57.818Z,16.90
2018-05-18T23:10:21.163Z,11.40
2018-05-18T23:13:44.446Z,15.27
2018-05-18T23:17:07.817Z,15.60
2018-05-18T23:20:31.239Z,14.97
2018-05-18T23:23:54.509Z,13.87
2018-05-18T23:27:17.807Z,13.70
2018-05-18T23:30:41.096Z,14.13
2018-05-18T23:34:04.430Z,17.80
2018-05-18T23:37:27.777Z,15.17
2018-05-18T23:40:51.887Z,12.80
2018-05-18T23:44:15.325Z,15.70
2018-05-18T23:47:38.652Z,15.67
2018-05-18T23:51:02.772Z,14.67
2018-05-18T23:54:26.178Z,13.73
2018-05-18T23:57:49.459Z,14.03
